createdAt,value
2022-08-29T00:01:28.816Z,21.12
2022-08-29T00:03:58.033Z,21.17
2022-08-29T00:06:26.416Z,21.19
2022-08-29T00:08:54.130Z,21.15
2022-08-29T00:11:21.507Z,21.07
2022-08-29T00:13:49.034Z,20.98
2022-08-29T00:16:16.405Z,20.97
2022-08-29T00:18:43.521Z,20.91
2022-08-29T00:21:10.796Z,20.92
2022-08-29T00:23:37.891Z,20.97
2022-08-29T00:26:06.049Z,20.92
2022-08-29T00:28:33.673Z,20.90
2022-08-29T00:31:01.945Z,20.80
2022-08-29T00:33:29.499Z,20.84
2022-08-29T00:35:56.936Z,20.82
2022-08-29T00:38:27.628Z,20.81
2022-08-29T00:40:56.750Z,20.74
2022-08-29T00:43:27.958Z,20.79
2022-08-29T00:46:01.291Z,20.69
2022-08-29T00:48:29.350Z,20.70
2022-08-29T00:51:01.667Z,20.72
2022-08-29T00:53:54.345Z,20.69
2022-08-29T00:56:22.252Z,20.74
2022-08-29T00:58:57.625Z,20.69
2022-08-29T01:01:25.669Z,20.68
2022-08-29T01:03:54.060Z,20.66
2022-08-29T01:06:22.460Z,20.62
2022-08-29T01:08:57.432Z,20.64
2022-08-29T01:11:46.802Z,20.60
2022-08-29T01:14:15.190Z,20.51
2022-08-29T01:16:42.705Z,20.48
2022-08-29T01:19:31.644Z,20.45
2022-08-29T01:22:17.169Z,20.49
2022-08-29T01:24:51.107Z,20.40
2022-08-29T01:27:28.933Z,20.42
2022-08-29T01:29:56.783Z,20.42
2022-08-29T01:32:25.421Z,20.37
2022-08-29T01:34:53.650Z,20.31
2022-08-29T01:37:20.908Z,20.34
2022-08-29T01:39:48.368Z,20.30
2022-08-29T01:42:21.965Z,20.29
2022-08-29T01:44:58.496Z,20.26
2022-08-29T01:47:30.114Z,20.26
2022-08-29T01:49:57.757Z,20.22
2022-08-29T01:52:25.082Z,20.22
2022-08-29T01:54:52.397Z,20.18
2022-08-29T01:57:20.087Z,20.12
2022-08-29T01:59:47.678Z,20.18
2022-08-29T02:02:23.599Z,20.26
2022-08-29T02:04:51.029Z,20.25
2022-08-29T02:07:21.151Z,20.29
2022-08-29T02:09:48.652Z,20.26
2022-08-29T02:12:16.654Z,20.25
2022-08-29T02:14:45.146Z,20.18
2022-08-29T02:17:12.596Z,20.15
2022-08-29T02:19:40.207Z,20.17
2022-08-29T02:22:09.704Z,20.19
2022-08-29T02:24:36.962Z,20.15
2022-08-29T02:27:04.479Z,20.15
2022-08-29T02:29:37.321Z,20.12
2022-08-29T02:32:08.541Z,20.07
2022-08-29T02:34:36.870Z,20.07
2022-08-29T02:37:06.029Z,20.09
2022-08-29T02:39:34.448Z,20.07
2022-08-29T02:42:02.393Z,20.05
2022-08-29T02:44:29.843Z,20.00
2022-08-29T02:46:57.338Z,19.94
2022-08-29T02:49:24.445Z,19.90
2022-08-29T02:51:51.717Z,19.85
2022-08-29T02:54:19.020Z,19.88
2022-08-29T02:56:46.393Z,19.79
2022-08-29T02:59:14.392Z,19.78
2022-08-29T03:01:41.629Z,19.70
2022-08-29T03:04:08.904Z,19.64
2022-08-29T03:06:36.137Z,19.63
2022-08-29T03:09:03.437Z,19.57
2022-08-29T03:11:31.226Z,19.52
2022-08-29T03:13:58.261Z,19.52
2022-08-29T03:16:26.501Z,19.51
2022-08-29T03:18:54.543Z,19.57
2022-08-29T03:21:25.008Z,19.59
2022-08-29T03:23:53.023Z,19.60
2022-08-29T03:26:20.765Z,19.60
2022-08-29T03:28:48.396Z,19.64
2022-08-29T03:31:16.508Z,19.57
2022-08-29T03:33:43.864Z,19.59
2022-08-29T03:36:14.146Z,19.55
2022-08-29T03:38:43.780Z,19.42
2022-08-29T03:41:11.617Z,19.43
2022-08-29T03:43:39.035Z,19.41
2022-08-29T03:46:06.825Z,19.35
2022-08-29T03:48:34.073Z,19.42
2022-08-29T03:51:01.579Z,19.36
2022-08-29T03:53:30.771Z,19.37
2022-08-29T03:55:58.387Z,19.41
2022-08-29T03:58:25.902Z,19.41
2022-08-29T04:00:53.157Z,19.45
2022-08-29T04:03:21.956Z,19.45
2022-08-29T04:05:55.252Z,19.47
2022-08-29T04:08:23.124Z,19.46
2022-08-29T04:10:51.292Z,19.52
2022-08-29T04:13:18.938Z,19.55
2022-08-29T04:15:46.430Z,19.53
2022-08-29T04:18:13.633Z,19.59
2022-08-29T04:20:45.619Z,19.73
2022-08-29T04:23:14.236Z,19.65
2022-08-29T04:25:43.757Z,19.72
2022-08-29T04:28:14.309Z,19.59
2022-08-29T04:30:51.505Z,19.72
2022-08-29T04:33:22.950Z,19.78
2022-08-29T04:35:52.334Z,19.80
2022-08-29T04:38:20.393Z,19.84
2022-08-29T04:40:47.909Z,19.85
2022-08-29T04:43:15.617Z,19.96
2022-08-29T04:45:42.779Z,20.02
2022-08-29T04:48:11.149Z,20.01
2022-08-29T04:50:39.182Z,20.10
2022-08-29T04:53:06.399Z,20.16
2022-08-29T04:55:33.536Z,20.17
2022-08-29T04:58:01.538Z,20.19
2022-08-29T05:00:31.351Z,20.27
2022-08-29T05:02:59.633Z,20.35
2022-08-29T05:05:27.857Z,20.45
2022-08-29T05:07:55.246Z,20.50
2022-08-29T05:10:23.054Z,20.54
2022-08-29T05:12:50.306Z,20.65
2022-08-29T05:15:18.054Z,20.70
2022-08-29T05:17:45.583Z,20.81
2022-08-29T05:20:13.049Z,20.91
2022-08-29T05:22:42.405Z,20.97
2022-08-29T05:25:17.270Z,20.99
2022-08-29T05:27:46.930Z,20.96
2022-08-29T05:30:16.479Z,21.09
2022-08-29T05:33:01.422Z,21.19
2022-08-29T05:35:28.638Z,21.34
2022-08-29T05:37:55.898Z,21.52
2022-08-29T05:40:23.109Z,21.64
2022-08-29T05:42:50.550Z,21.68
2022-08-29T05:45:17.903Z,21.75
2022-08-29T05:47:45.320Z,21.80
2022-08-29T05:50:17.091Z,21.91
2022-08-29T05:52:45.439Z,21.94
2022-08-29T05:55:12.607Z,22.03
2022-08-29T05:57:40.167Z,22.16
2022-08-29T06:00:10.757Z,22.35
2022-08-29T06:02:40.998Z,22.54
2022-08-29T06:05:08.907Z,22.70
2022-08-29T06:07:38.058Z,22.86
2022-08-29T06:10:09.040Z,22.97
2022-08-29T06:12:37.658Z,23.13
2022-08-29T06:15:05.333Z,23.37
2022-08-29T06:17:34.111Z,23.61
2022-08-29T06:20:01.442Z,23.78
2022-08-29T06:22:31.137Z,23.79
2022-08-29T06:24:58.804Z,23.98
2022-08-29T06:27:26.064Z,24.03
2022-08-29T06:29:53.251Z,24.15
2022-08-29T06:32:21.198Z,24.32
2022-08-29T06:34:48.443Z,24.44
2022-08-29T06:37:16.207Z,24.52
2022-08-29T06:39:43.612Z,24.60
2022-08-29T06:42:10.726Z,24.70
2022-08-29T06:44:44.403Z,24.71
2022-08-29T06:47:12.181Z,24.89
2022-08-29T06:49:39.550Z,24.95
2022-08-29T06:52:06.988Z,24.95
2022-08-29T06:54:34.378Z,25.04
2022-08-29T06:57:01.692Z,25.21
2022-08-29T06:59:29.148Z,25.26
2022-08-29T07:01:56.830Z,25.45
2022-08-29T07:04:26.438Z,25.53
2022-08-29T07:06:54.673Z,25.63
2022-08-29T07:09:22.101Z,25.83
2022-08-29T07:11:49.558Z,25.91
2022-08-29T07:14:17.319Z,26.06
2022-08-29T07:16:44.755Z,26.16
2022-08-29T07:19:11.909Z,26.33
2022-08-29T07:21:39.941Z,26.57
2022-08-29T07:24:08.609Z,26.66
2022-08-29T07:26:42.564Z,26.67
2022-08-29T07:29:20.705Z,26.89
2022-08-29T07:31:49.014Z,27.06
2022-08-29T07:34:20.713Z,27.20
2022-08-29T07:36:49.216Z,27.39
2022-08-29T07:39:19.482Z,27.54
2022-08-29T07:41:46.900Z,27.72
2022-08-29T07:44:16.051Z,27.93
2022-08-29T07:46:44.178Z,28.12
2022-08-29T07:49:12.569Z,28.30
2022-08-29T07:51:44.171Z,28.48
2022-08-29T07:54:13.514Z,28.60
2022-08-29T07:56:41.690Z,28.68
2022-08-29T07:59:09.548Z,28.72
2022-08-29T08:01:37.826Z,28.73
2022-08-29T08:04:05.603Z,28.72
2022-08-29T08:06:35.871Z,28.76
2022-08-29T08:09:05.380Z,28.83
2022-08-29T08:11:32.809Z,28.84
2022-08-29T08:14:00.167Z,28.79
2022-08-29T08:16:28.421Z,28.76
2022-08-29T08:18:56.580Z,28.90
2022-08-29T08:21:25.685Z,29.04
2022-08-29T08:23:53.910Z,29.20
2022-08-29T08:26:21.364Z,29.24
2022-08-29T08:28:48.895Z,29.34
2022-08-29T08:31:17.948Z,29.55
2022-08-29T08:33:46.125Z,29.74
2022-08-29T08:36:26.268Z,29.90
2022-08-29T08:38:55.161Z,30.19
2022-08-29T08:41:27.307Z,30.41
2022-08-29T08:44:14.338Z,30.69
2022-08-29T08:46:45.110Z,30.99
2022-08-29T08:49:36.854Z,31.23
2022-08-29T08:52:14.183Z,31.38
2022-08-29T08:54:50.655Z,31.54
2022-08-29T08:57:20.153Z,31.63
2022-08-29T08:59:53.487Z,31.64
2022-08-29T09:02:35.520Z,31.66
2022-08-29T09:05:31.150Z,31.65
2022-08-29T09:08:17.226Z,31.64
2022-08-29T09:10:49.445Z,31.63
2022-08-29T09:13:58.401Z,31.50
2022-08-29T09:16:31.747Z,31.42
2022-08-29T09:19:04.963Z,31.26
2022-08-29T09:21:42.927Z,31.29
2022-08-29T09:24:17.619Z,31.27
2022-08-29T09:26:44.786Z,31.20
2022-08-29T09:29:14.005Z,31.23
2022-08-29T09:31:41.818Z,31.21
2022-08-29T09:34:13.143Z,31.26
2022-08-29T09:36:53.158Z,31.26
2022-08-29T09:39:28.675Z,31.37
2022-08-29T09:42:13.967Z,31.35
2022-08-29T09:44:51.498Z,31.56
2022-08-29T09:47:30.612Z,31.60
2022-08-29T09:50:03.024Z,31.73
2022-08-29T09:52:31.119Z,31.84
2022-08-29T09:55:27.904Z,31.89
2022-08-29T09:58:10.419Z,31.91
2022-08-29T10:00:45.007Z,32.03
2022-08-29T10:03:22.872Z,32.05
2022-08-29T10:06:07.652Z,32.15
2022-08-29T10:08:39.556Z,32.27
2022-08-29T10:11:21.179Z,32.34
2022-08-29T10:13:59.186Z,32.37
2022-08-29T10:16:41.699Z,32.43
2022-08-29T10:19:34.131Z,32.48
2022-08-29T10:22:02.286Z,32.56
2022-08-29T10:24:32.011Z,32.68
2022-08-29T10:27:10.890Z,32.77
2022-08-29T10:30:00.111Z,32.76
2022-08-29T10:32:35.636Z,32.75
2022-08-29T10:35:30.958Z,32.60
2022-08-29T10:38:05.086Z,32.41
2022-08-29T10:40:52.707Z,32.51
2022-08-29T10:43:35.553Z,32.63
2022-08-29T10:46:12.379Z,32.51
2022-08-29T10:48:46.349Z,32.44
2022-08-29T10:51:20.063Z,32.40
2022-08-29T10:54:03.440Z,32.08
2022-08-29T10:56:43.078Z,32.36
2022-08-29T10:59:25.258Z,32.40
2022-08-29T11:01:56.061Z,32.35
2022-08-29T11:04:43.719Z,32.31
2022-08-29T11:07:23.032Z,32.50
2022-08-29T11:09:55.630Z,32.55
2022-08-29T11:12:47.108Z,32.65
2022-08-29T11:15:28.155Z,32.77
2022-08-29T11:18:26.475Z,32.91
2022-08-29T11:21:00.509Z,33.03
2022-08-29T11:23:46.855Z,32.99
2022-08-29T11:26:23.521Z,32.97
2022-08-29T11:29:02.086Z,32.93
2022-08-29T11:31:56.919Z,33.04
2022-08-29T11:34:24.216Z,33.18
2022-08-29T11:37:28.072Z,33.18
2022-08-29T11:40:07.688Z,33.28
2022-08-29T11:42:55.451Z,33.37
2022-08-29T11:45:36.949Z,33.38
2022-08-29T11:48:32.972Z,33.38
2022-08-29T11:51:31.710Z,33.53
2022-08-29T11:54:24.944Z,33.51
2022-08-29T11:57:03.059Z,33.79
2022-08-29T11:59:51.480Z,34.07
2022-08-29T12:02:28.257Z,34.18
2022-08-29T12:04:59.541Z,34.04
2022-08-29T12:07:49.108Z,33.97
2022-08-29T12:10:23.753Z,33.97
2022-08-29T12:13:01.218Z,33.89
2022-08-29T12:15:34.779Z,33.89
2022-08-29T12:18:22.519Z,33.85
2022-08-29T12:20:57.137Z,33.92
2022-08-29T12:23:36.389Z,34.05
2022-08-29T12:26:22.095Z,34.16
2022-08-29T12:29:01.934Z,34.08
2022-08-29T12:32:18.154Z,34.14
2022-08-29T12:35:11.758Z,34.28
2022-08-29T12:37:55.194Z,34.40
2022-08-29T12:41:04.630Z,34.44
2022-08-29T12:43:42.755Z,34.51
2022-08-29T12:46:25.775Z,34.40
2022-08-29T12:49:03.544Z,34.37
2022-08-29T12:51:33.221Z,34.50
2022-08-29T12:54:00.673Z,34.50
2022-08-29T12:56:28.302Z,34.50
2022-08-29T12:59:00.321Z,34.54
2022-08-29T13:01:33.776Z,34.49
2022-08-29T13:04:03.519Z,34.35
2022-08-29T13:06:33.574Z,34.32
2022-08-29T13:09:01.637Z,34.35
2022-08-29T13:11:32.067Z,34.49
2022-08-29T13:14:12.265Z,34.43
2022-08-29T13:16:41.450Z,34.29
2022-08-29T13:19:20.595Z,34.48
2022-08-29T13:21:48.264Z,34.53
2022-08-29T13:24:22.418Z,34.41
2022-08-29T13:27:04.841Z,34.35
2022-08-29T13:29:38.868Z,34.42
2022-08-29T13:32:18.883Z,34.42
2022-08-29T13:35:16.024Z,34.51
2022-08-29T13:37:46.741Z,34.53
2022-08-29T13:40:57.455Z,34.52
2022-08-29T13:43:45.966Z,34.53
2022-08-29T13:46:15.005Z,34.68
2022-08-29T13:48:43.642Z,34.76
2022-08-29T13:51:11.706Z,34.62
2022-08-29T13:53:39.780Z,34.75
2022-08-29T13:56:32.515Z,34.85
2022-08-29T13:59:00.910Z,34.81
2022-08-29T14:01:29.836Z,34.87
2022-08-29T14:04:01.253Z,34.83
2022-08-29T14:06:34.215Z,34.78
2022-08-29T14:09:02.225Z,34.69
2022-08-29T14:11:29.764Z,34.57
2022-08-29T14:13:57.522Z,34.44
2022-08-29T14:16:25.664Z,34.33
2022-08-29T14:18:53.833Z,34.20
2022-08-29T14:21:21.092Z,34.14
2022-08-29T14:23:48.977Z,34.06
2022-08-29T14:26:17.610Z,34.18
2022-08-29T14:28:48.470Z,34.16
2022-08-29T14:31:16.784Z,34.30
2022-08-29T14:33:45.049Z,34.31
2022-08-29T14:36:12.796Z,34.36
2022-08-29T14:38:40.033Z,34.28
2022-08-29T14:41:07.777Z,34.33
2022-08-29T14:43:39.610Z,34.33
2022-08-29T14:46:07.963Z,34.33
2022-08-29T14:48:35.734Z,34.28
2022-08-29T14:51:04.074Z,34.18
2022-08-29T14:53:33.986Z,34.10
2022-08-29T14:56:05.524Z,34.04
2022-08-29T14:58:32.979Z,33.92
2022-08-29T15:01:00.949Z,33.92
2022-08-29T15:03:28.286Z,33.94
2022-08-29T15:05:55.571Z,33.94
2022-08-29T15:08:23.129Z,34.07
2022-08-29T15:10:50.696Z,34.11
2022-08-29T15:13:18.348Z,34.09
2022-08-29T15:15:45.949Z,34.01
2022-08-29T15:18:30.519Z,33.88
2022-08-29T15:21:02.215Z,33.79
2022-08-29T15:23:29.782Z,33.66
2022-08-29T15:25:57.215Z,33.52
2022-08-29T15:28:24.589Z,33.38
2022-08-29T15:30:52.436Z,33.34
2022-08-29T15:33:19.891Z,33.16
2022-08-29T15:35:47.451Z,33.02
2022-08-29T15:38:14.977Z,32.88
2022-08-29T15:40:42.863Z,32.80
2022-08-29T15:43:10.801Z,32.71
2022-08-29T15:45:39.191Z,32.53
2022-08-29T15:48:11.605Z,32.32
2022-08-29T15:50:41.623Z,32.25
2022-08-29T15:53:09.553Z,32.00
2022-08-29T15:55:39.135Z,32.01
2022-08-29T15:58:09.782Z,31.89
2022-08-29T16:00:37.086Z,31.86
2022-08-29T16:03:05.249Z,31.83
2022-08-29T16:05:33.767Z,31.73
2022-08-29T16:08:02.090Z,31.58
2022-08-29T16:10:30.084Z,31.52
2022-08-29T16:12:58.516Z,31.42
2022-08-29T16:15:27.821Z,31.31
2022-08-29T16:17:55.223Z,31.29
2022-08-29T16:20:22.726Z,31.29
2022-08-29T16:22:50.133Z,31.20
2022-08-29T16:25:17.980Z,31.14
2022-08-29T16:27:45.211Z,31.05
2022-08-29T16:30:13.373Z,31.03
2022-08-29T16:32:41.021Z,30.96
2022-08-29T16:35:10.443Z,30.87
2022-08-29T16:37:37.894Z,30.77
2022-08-29T16:40:07.213Z,30.67
2022-08-29T16:42:37.780Z,30.59
2022-08-29T16:45:09.934Z,30.47
2022-08-29T16:47:37.775Z,30.34
2022-08-29T16:50:07.404Z,30.02
2022-08-29T16:52:34.887Z,30.23
2022-08-29T16:55:04.670Z,30.14
2022-08-29T16:57:32.322Z,30.03
2022-08-29T16:59:59.585Z,30.00
2022-08-29T17:02:26.876Z,29.90
2022-08-29T17:04:54.291Z,29.84
2022-08-29T17:07:21.839Z,29.75
2022-08-29T17:09:48.971Z,29.60
2022-08-29T17:12:16.346Z,29.57
2022-08-29T17:14:43.404Z,29.49
2022-08-29T17:17:10.756Z,29.37
2022-08-29T17:19:39.037Z,29.30
2022-08-29T17:22:06.382Z,29.26
2022-08-29T17:24:33.578Z,29.17
2022-08-29T17:27:01.715Z,29.15
2022-08-29T17:29:29.031Z,29.07
2022-08-29T17:31:56.290Z,29.02
2022-08-29T17:34:23.934Z,28.94
2022-08-29T17:36:51.400Z,28.86
2022-08-29T17:39:20.072Z,28.76
2022-08-29T17:41:52.459Z,28.76
2022-08-29T17:44:20.131Z,28.72
2022-08-29T17:46:47.427Z,28.72
2022-08-29T17:49:14.838Z,28.66
2022-08-29T17:51:42.646Z,28.72
2022-08-29T17:54:14.685Z,28.69
2022-08-29T17:56:51.433Z,28.55
2022-08-29T17:59:20.550Z,28.67
2022-08-29T18:01:48.459Z,28.57
2022-08-29T18:04:17.039Z,28.53
2022-08-29T18:06:45.001Z,28.45
2022-08-29T18:09:12.301Z,28.33
2022-08-29T18:11:42.171Z,28.28
2022-08-29T18:14:10.199Z,28.28
2022-08-29T18:16:43.568Z,28.25
2022-08-29T18:19:13.571Z,28.27
2022-08-29T18:21:43.235Z,28.14
2022-08-29T18:28:41.632Z,28.05
2022-08-29T18:31:10.209Z,27.98
2022-08-29T18:33:59.458Z,27.89
2022-08-29T18:36:27.284Z,27.76
2022-08-29T18:38:54.570Z,27.73
2022-08-29T18:41:21.673Z,27.68
2022-08-29T18:43:49.713Z,27.60
2022-08-29T18:46:17.137Z,27.53
2022-08-29T18:48:44.939Z,27.48
2022-08-29T18:51:12.345Z,27.34
2022-08-29T18:53:39.977Z,27.32
2022-08-29T18:56:07.697Z,27.33
2022-08-29T18:58:36.173Z,27.26
2022-08-29T19:01:12.066Z,27.26
2022-08-29T19:03:40.674Z,27.19
2022-08-29T19:06:08.156Z,27.09
2022-08-29T19:08:35.363Z,26.99
2022-08-29T19:11:03.847Z,26.88
2022-08-29T19:13:31.373Z,26.78
2022-08-29T19:16:00.735Z,26.84
2022-08-29T19:18:27.947Z,26.75
2022-08-29T19:21:07.649Z,26.74
2022-08-29T19:23:52.684Z,26.64
2022-08-29T19:26:30.792Z,26.61
2022-08-29T19:29:01.688Z,26.61
2022-08-29T19:31:33.052Z,26.48
2022-08-29T19:34:00.879Z,26.47
2022-08-29T19:36:28.078Z,26.43
2022-08-29T19:38:56.554Z,26.29
2022-08-29T19:41:25.120Z,26.39
2022-08-29T19:43:54.077Z,26.33
2022-08-29T19:46:36.189Z,26.27
2022-08-29T19:51:36.231Z,26.28
2022-08-29T19:54:06.003Z,26.22
2022-08-29T19:56:34.028Z,26.28
2022-08-29T19:59:01.481Z,26.36
2022-08-29T20:01:29.329Z,26.45
2022-08-29T20:03:56.537Z,26.40
2022-08-29T20:06:24.294Z,26.26
2022-08-29T20:08:51.501Z,26.19
2022-08-29T20:11:23.797Z,26.12
2022-08-29T20:13:52.991Z,26.02
2022-08-29T20:16:28.647Z,25.92
2022-08-29T20:18:57.348Z,25.90
2022-08-29T20:21:26.475Z,25.88
2022-08-29T20:23:58.229Z,25.73
2022-08-29T20:26:28.942Z,25.71
2022-08-29T20:28:56.290Z,25.59
2022-08-29T20:31:23.473Z,25.55
2022-08-29T20:33:51.272Z,25.46
2022-08-29T20:36:39.858Z,25.37
2022-08-29T20:39:09.599Z,25.22
2022-08-29T20:41:38.764Z,25.18
2022-08-29T20:44:07.983Z,25.10
2022-08-29T20:46:41.356Z,24.99
2022-08-29T20:49:14.189Z,24.96
2022-08-29T20:51:45.903Z,24.92
2022-08-29T20:54:15.314Z,24.89
2022-08-29T20:56:43.244Z,24.77
2022-08-29T20:59:10.640Z,24.68
2022-08-29T21:01:38.301Z,24.60
2022-08-29T21:04:25.017Z,24.57
2022-08-29T21:06:56.847Z,24.36
2022-08-29T21:09:26.812Z,24.42
2022-08-29T21:11:57.923Z,24.23
2022-08-29T21:14:28.131Z,24.19
2022-08-29T21:16:57.038Z,23.93
2022-08-29T21:19:26.460Z,24.10
2022-08-29T21:21:53.986Z,24.01
2022-08-29T21:24:21.140Z,23.94
2022-08-29T21:26:48.494Z,23.98
2022-08-29T21:29:16.129Z,24.02
2022-08-29T21:31:43.432Z,23.97
2022-08-29T21:34:12.836Z,23.93
2022-08-29T21:36:41.724Z,23.89
2022-08-29T21:39:12.154Z,23.84
2022-08-29T21:41:45.235Z,23.77
2022-08-29T21:44:14.236Z,23.74
2022-08-29T21:46:43.942Z,23.76
2022-08-29T21:49:17.078Z,23.72
2022-08-29T21:51:45.962Z,23.64
2022-08-29T21:54:15.371Z,23.70
2022-08-29T21:56:44.935Z,23.70
2022-08-29T21:59:21.513Z,23.57
2022-08-29T22:01:52.669Z,23.56
2022-08-29T22:04:28.404Z,23.51
2022-08-29T22:06:58.241Z,23.38
2022-08-29T22:09:27.343Z,23.35
2022-08-29T22:11:54.827Z,23.34
2022-08-29T22:14:42.083Z,23.42
2022-08-29T22:17:09.330Z,23.42
2022-08-29T22:19:47.363Z,23.43
2022-08-29T22:22:19.778Z,23.41
2022-08-29T22:24:47.577Z,23.33
2022-08-29T22:27:16.015Z,23.19
2022-08-29T22:29:46.689Z,23.14
2022-08-29T22:32:14.111Z,23.06
2022-08-29T22:34:41.476Z,22.98
2022-08-29T22:37:08.897Z,22.95
2022-08-29T22:39:36.084Z,23.00
2022-08-29T22:42:03.466Z,23.07
2022-08-29T22:47:19.466Z,22.93
2022-08-29T22:49:48.355Z,22.87
2022-08-29T22:52:16.798Z,22.82
2022-08-29T22:54:44.126Z,22.78
2022-08-29T22:57:15.311Z,22.77
2022-08-29T22:59:43.813Z,22.73
2022-08-29T23:02:12.369Z,22.67
2022-08-29T23:04:40.176Z,22.60
2022-08-29T23:07:07.966Z,22.49
2022-08-29T23:09:35.898Z,22.40
2022-08-29T23:12:05.865Z,22.25
2022-08-29T23:14:36.318Z,22.23
2022-08-29T23:17:06.417Z,22.12
2022-08-29T23:19:34.420Z,22.16
2022-08-29T23:22:02.750Z,22.24
2022-08-29T23:24:31.318Z,22.23
2022-08-29T23:26:59.440Z,21.97
2022-08-29T23:29:27.183Z,22.13
2022-08-29T23:31:54.920Z,22.15
2022-08-29T23:34:22.781Z,22.20
2022-08-29T23:36:52.031Z,22.21
2022-08-29T23:39:20.110Z,22.19
2022-08-29T23:41:49.166Z,22.20
2022-08-29T23:44:17.614Z,22.21
2022-08-29T23:46:45.118Z,22.19
2022-08-29T23:49:12.579Z,22.18
2022-08-29T23:51:39.923Z,22.17
2022-08-29T23:54:08.298Z,22.24
2022-08-29T23:56:35.485Z,22.30
2022-08-29T23:59:04.045Z,22.24
